createdAt,value
2023-09-29T00:01:02.768Z,18.40
2023-09-29T00:06:09.065Z,18.40
2023-09-29T00:11:13.538Z,18.40
2023-09-29T00:16:17.580Z,18.40
2023-09-29T00:21:22.994Z,18.40
2023-09-29T00:26:27.027Z,18.40
2023-09-29T00:31:33.474Z,18.40
2023-09-29T00:36:41.357Z,18.40
2023-09-29T00:41:45.462Z,18.40
2023-09-29T00:46:49.809Z,18.40
2023-09-29T00:51:56.120Z,18.40
2023-09-29T00:57:02.123Z,18.40
2023-09-29T01:02:10.209Z,18.40
2023-09-29T01:07:17.241Z,18.40
2023-09-29T01:12:28.656Z,18.40
2023-09-29T01:17:36.950Z,18.40
2023-09-29T01:22:48.529Z,18.40
2023-09-29T01:27:55.658Z,18.40
2023-09-29T01:33:01.569Z,18.40
2023-09-29T01:38:06.267Z,18.40
2023-09-29T01:43:11.762Z,18.40
2023-09-29T01:48:15.974Z,18.40
2023-09-29T01:53:20.129Z,18.40
2023-09-29T01:58:25.616Z,18.40
2023-09-29T02:03:31.378Z,18.40
2023-09-29T02:08:36.959Z,18.40
2023-09-29T02:13:42.585Z,18.40
2023-09-29T02:18:48.253Z,18.40
2023-09-29T02:23:52.478Z,18.40
2023-09-29T02:28:58.223Z,18.40
2023-09-29T02:34:02.420Z,18.40
2023-09-29T02:39:06.709Z,18.40
2023-09-29T02:44:12.181Z,18.30
2023-09-29T02:49:21.183Z,18.30
2023-09-29T02:54:26.378Z,18.30
2023-09-29T02:59:35.237Z,18.40
2023-09-29T03:04:40.263Z,18.40
2023-09-29T03:09:45.217Z,18.40
2023-09-29T03:14:51.135Z,18.40
2023-09-29T03:19:56.385Z,18.40
2023-09-29T03:25:02.109Z,18.40
2023-09-29T03:30:10.788Z,18.40
2023-09-29T03:35:15.773Z,18.40
2023-09-29T03:40:20.479Z,18.40
2023-09-29T03:45:26.696Z,18.40
2023-09-29T03:50:30.830Z,18.50
2023-09-29T03:55:35.165Z,18.50
2023-09-29T04:00:40.738Z,18.50
2023-09-29T04:05:44.868Z,18.50
2023-09-29T04:10:48.920Z,18.50
2023-09-29T04:15:57.110Z,18.50
2023-09-29T04:21:03.391Z,18.50
2023-09-29T04:26:16.926Z,18.50
2023-09-29T04:31:22.539Z,18.50
2023-09-29T04:36:26.635Z,18.50
2023-09-29T04:41:30.957Z,18.50
2023-09-29T04:46:43.280Z,18.50
2023-09-29T04:51:47.814Z,18.60
2023-09-29T04:56:53.038Z,18.60
2023-09-29T05:01:58.412Z,18.60
2023-09-29T05:07:02.512Z,18.60
2023-09-29T05:12:07.145Z,18.70
2023-09-29T05:17:13.156Z,18.70
2023-09-29T05:22:17.198Z,18.80
2023-09-29T05:27:21.252Z,18.80
2023-09-29T05:32:26.722Z,18.90
2023-09-29T05:37:31.390Z,18.90
2023-09-29T05:42:51.031Z,18.90
2023-09-29T05:47:58.627Z,19.00
2023-09-29T05:53:10.546Z,19.00
2023-09-29T05:58:15.277Z,19.00
2023-09-29T06:03:20.740Z,19.00
2023-09-29T06:08:26.958Z,19.00
2023-09-29T06:13:36.280Z,19.10
2023-09-29T06:18:52.296Z,19.10
2023-09-29T06:23:57.724Z,19.10
2023-09-29T06:29:02.142Z,19.10
2023-09-29T06:34:07.641Z,19.10
2023-09-29T06:39:13.524Z,19.10
2023-09-29T06:44:17.743Z,19.20
2023-09-29T06:49:23.150Z,19.20
2023-09-29T06:54:27.259Z,19.20
2023-09-29T06:59:31.377Z,19.20
2023-09-29T07:04:37.273Z,19.30
2023-09-29T07:09:52.525Z,19.30
2023-09-29T07:14:56.572Z,19.40
2023-09-29T07:20:02.108Z,19.40
2023-09-29T07:25:07.868Z,19.50
2023-09-29T07:30:13.622Z,19.60
2023-09-29T07:35:20.368Z,19.60
2023-09-29T07:40:24.615Z,19.70
2023-09-29T07:45:29.013Z,19.80
2023-09-29T07:50:37.246Z,19.80
2023-09-29T07:55:41.537Z,19.80
2023-09-29T08:00:45.699Z,19.90
2023-09-29T08:05:52.985Z,20.00
2023-09-29T08:10:57.165Z,20.10
2023-09-29T08:16:01.280Z,20.10
2023-09-29T08:21:06.763Z,20.20
2023-09-29T08:26:11.298Z,20.30
2023-09-29T08:31:16.877Z,20.40
2023-09-29T08:36:22.460Z,20.50
2023-09-29T08:41:29.736Z,20.60
2023-09-29T08:46:37.066Z,20.70
2023-09-29T08:51:47.521Z,20.70
2023-09-29T08:56:53.113Z,20.80
2023-09-29T09:01:59.894Z,20.80
2023-09-29T09:07:05.857Z,20.70
2023-09-29T09:12:10.174Z,20.60
2023-09-29T09:17:14.633Z,20.50
2023-09-29T09:22:35.045Z,20.40
2023-09-29T09:27:50.368Z,20.30
2023-09-29T09:32:54.488Z,20.30
2023-09-29T09:38:02.411Z,20.30
2023-09-29T09:43:10.610Z,20.30
2023-09-29T09:48:19.400Z,20.30
2023-09-29T09:53:29.381Z,20.30
2023-09-29T09:58:33.561Z,20.30
2023-09-29T10:03:39.754Z,20.30
2023-09-29T10:08:47.369Z,20.30
2023-09-29T10:13:51.436Z,20.30
2023-09-29T10:19:00.523Z,20.30
2023-09-29T10:24:08.123Z,20.30
2023-09-29T10:29:21.158Z,20.30
2023-09-29T10:34:27.350Z,20.30
2023-09-29T10:39:32.918Z,20.40
2023-09-29T10:44:46.260Z,20.40
2023-09-29T10:49:50.442Z,20.40
2023-09-29T10:54:58.361Z,20.50
2023-09-29T11:00:03.450Z,20.60
2023-09-29T11:05:13.225Z,20.70
2023-09-29T11:10:20.010Z,20.80
2023-09-29T11:15:28.092Z,20.70
2023-09-29T11:20:32.638Z,20.70
2023-09-29T11:25:49.861Z,20.80
2023-09-29T11:30:54.116Z,20.70
2023-09-29T11:36:06.212Z,20.70
2023-09-29T11:41:16.974Z,20.60
2023-09-29T11:46:21.603Z,20.40
2023-09-29T11:51:27.318Z,20.40
2023-09-29T11:56:32.883Z,20.30
2023-09-29T12:01:37.399Z,20.20
2023-09-29T12:06:41.802Z,20.10
2023-09-29T12:11:49.393Z,20.10
2023-09-29T12:16:54.527Z,20.00
2023-09-29T12:21:58.580Z,19.90
2023-09-29T12:27:07.330Z,19.80
2023-09-29T12:32:11.440Z,19.80
2023-09-29T12:37:15.534Z,19.70
2023-09-29T12:42:20.924Z,19.70
2023-09-29T12:47:26.126Z,19.50
2023-09-29T12:52:30.244Z,19.50
2023-09-29T12:57:35.675Z,19.50
2023-09-29T13:02:39.882Z,19.50
2023-09-29T13:07:44.211Z,19.60
2023-09-29T13:12:53.058Z,19.60
2023-09-29T13:17:57.387Z,19.60
2023-09-29T13:23:01.786Z,19.50
2023-09-29T13:28:08.123Z,19.50
2023-09-29T13:33:12.236Z,19.50
2023-09-29T13:38:16.441Z,19.50
2023-09-29T13:43:21.942Z,19.50
2023-09-29T13:48:26.147Z,19.60
2023-09-29T13:53:30.731Z,19.60
2023-09-29T13:58:37.113Z,19.60
2023-09-29T14:03:44.155Z,19.50
2023-09-29T14:08:55.808Z,19.50
2023-09-29T14:14:10.888Z,19.40
2023-09-29T14:19:15.822Z,19.40
2023-09-29T14:24:20.593Z,19.40
2023-09-29T14:29:26.160Z,19.40
2023-09-29T14:34:30.217Z,19.40
2023-09-29T14:39:36.430Z,19.30
2023-09-29T14:44:42.063Z,19.30
2023-09-29T14:49:46.135Z,19.20
2023-09-29T14:54:50.182Z,19.20
2023-09-29T14:59:55.811Z,19.20
2023-09-29T15:05:00.168Z,19.20
2023-09-29T15:10:04.854Z,19.20
2023-09-29T15:15:12.489Z,19.20
2023-09-29T15:20:17.375Z,19.20
2023-09-29T15:25:21.522Z,19.10
2023-09-29T15:30:27.285Z,19.10
2023-09-29T15:35:31.343Z,19.10
2023-09-29T15:40:35.510Z,19.10
2023-09-29T15:45:41.159Z,19.10
2023-09-29T15:50:45.663Z,19.00
2023-09-29T15:55:49.735Z,19.00
2023-09-29T16:00:55.156Z,19.00
2023-09-29T16:06:03.477Z,18.90
2023-09-29T16:11:07.684Z,18.90
2023-09-29T16:16:14.244Z,18.80
2023-09-29T16:21:20.189Z,18.70
2023-09-29T16:26:24.363Z,18.70
2023-09-29T16:31:31.042Z,18.70
2023-09-29T16:36:36.057Z,18.60
2023-09-29T16:41:40.092Z,18.60
2023-09-29T16:46:48.272Z,18.50
2023-09-29T16:51:52.434Z,18.50
2023-09-29T16:56:56.488Z,18.50
2023-09-29T17:02:01.946Z,18.40
2023-09-29T17:07:06.027Z,18.40
2023-09-29T17:12:11.141Z,18.40
2023-09-29T17:17:16.637Z,18.30
2023-09-29T17:22:21.374Z,18.20
2023-09-29T17:27:25.583Z,18.20
2023-09-29T17:32:31.458Z,18.10
2023-09-29T17:37:35.855Z,18.10
2023-09-29T17:42:39.985Z,18.00
2023-09-29T17:47:45.575Z,17.90
2023-09-29T17:52:49.640Z,17.80
2023-09-29T17:57:53.663Z,17.80
2023-09-29T18:02:59.054Z,17.70
2023-09-29T18:08:03.331Z,17.70
2023-09-29T18:13:07.411Z,17.60
2023-09-29T18:18:13.012Z,17.60
2023-09-29T18:23:17.144Z,17.50
2023-09-29T18:28:21.548Z,17.50
2023-09-29T18:33:28.532Z,17.40
2023-09-29T18:38:33.534Z,17.40
2023-09-29T18:43:37.585Z,17.30
2023-09-29T18:48:43.080Z,17.20
2023-09-29T18:53:48.010Z,17.20
2023-09-29T18:58:52.780Z,17.10
2023-09-29T19:03:58.408Z,17.10
2023-09-29T19:09:02.600Z,17.10
2023-09-29T19:14:07.751Z,17.00
2023-09-29T19:19:14.441Z,17.00
2023-09-29T19:24:18.652Z,16.90
2023-09-29T19:29:23.204Z,16.90
2023-09-29T19:34:28.753Z,16.90
2023-09-29T19:39:32.890Z,16.90
2023-09-29T19:44:36.899Z,16.80
2023-09-29T19:49:42.376Z,16.80
2023-09-29T19:54:46.508Z,16.80
2023-09-29T19:59:51.152Z,16.70
2023-09-29T20:04:57.196Z,16.70
2023-09-29T20:10:01.351Z,16.70
2023-09-29T20:15:06.439Z,16.60
2023-09-29T20:20:13.476Z,16.50
2023-09-29T20:25:17.360Z,16.50
2023-09-29T20:30:22.327Z,16.50
2023-09-29T20:35:27.766Z,16.40
2023-09-29T20:40:32.023Z,16.40
2023-09-29T20:45:36.117Z,16.30
2023-09-29T20:50:41.879Z,16.30
2023-09-29T20:55:46.034Z,16.20
2023-09-29T21:00:50.245Z,16.20
2023-09-29T21:05:55.749Z,16.20
2023-09-29T21:11:00.884Z,16.10
2023-09-29T21:16:08.529Z,16.10
2023-09-29T21:21:13.926Z,16.10
2023-09-29T21:26:18.396Z,16.00
2023-09-29T21:31:27.410Z,16.00
2023-09-29T21:36:32.970Z,16.00
2023-09-29T21:41:37.128Z,15.90
2023-09-29T21:46:41.569Z,15.90
2023-09-29T21:51:50.068Z,15.90
2023-09-29T21:56:55.315Z,15.80
2023-09-29T22:01:59.598Z,15.80
2023-09-29T22:07:05.094Z,15.80
2023-09-29T22:12:09.328Z,15.80
2023-09-29T22:17:13.393Z,15.70
2023-09-29T22:22:18.868Z,15.70
2023-09-29T22:27:23.010Z,15.70
2023-09-29T22:32:27.502Z,15.70
2023-09-29T22:37:33.296Z,15.60
2023-09-29T22:42:37.496Z,15.60
2023-09-29T22:47:41.677Z,15.60
2023-09-29T22:52:47.980Z,15.60
2023-09-29T22:57:52.054Z,15.60
2023-09-29T23:02:56.517Z,15.60
2023-09-29T23:08:02.080Z,15.60
2023-09-29T23:13:06.342Z,15.50
2023-09-29T23:18:11.723Z,15.50
2023-09-29T23:23:17.313Z,15.50
2023-09-29T23:28:21.542Z,15.50
2023-09-29T23:33:27.509Z,15.50
2023-09-29T23:38:34.293Z,15.40
2023-09-29T23:43:38.351Z,15.40
2023-09-29T23:48:42.411Z,15.40
2023-09-29T23:53:47.818Z,15.40
2023-09-29T23:58:52.485Z,15.40
